sensor_id;sensor_type;location;lat;lon;timestamp;temperature;humidity
66312;HTU21D;53114;51.138;6.008;2023-06-04T00:02:20;14.78;55.12
66312;HTU21D;53114;51.138;6.008;2023-06-04T00:04:46;14.78;55.42
66312;HTU21D;53114;51.138;6.008;2023-06-04T00:07:12;14.82;54.54
66312;HTU21D;53114;51.138;6.008;2023-06-04T00:09:38;14.84;54.85
66312;HTU21D;53114;51.138;6.008;2023-06-04T00:12:04;14.74;55.61
66312;HTU21D;53114;51.138;6.008;2023-06-04T00:14:30;14.65;55.81
66312;HTU21D;53114;51.138;6.008;2023-06-04T00:16:56;14.54;55.02
66312;HTU21D;53114;51.138;6.008;2023-06-04T00:19:22;14.42;55.63
66312;HTU21D;53114;51.138;6.008;2023-06-04T00:21:48;14.36;57.99
66312;HTU21D;53114;51.138;6.008;2023-06-04T00:24:16;14.30;59.76
66312;HTU21D;53114;51.138;6.008;2023-06-04T00:26:42;14.25;59.18
66312;HTU21D;53114;51.138;6.008;2023-06-04T00:29:08;14.21;58.83
66312;HTU21D;53114;51.138;6.008;2023-06-04T00:31:34;14.22;58.56
66312;HTU21D;53114;51.138;6.008;2023-06-04T00:34:02;14.22;57.67
66312;HTU21D;53114;51.138;6.008;2023-06-04T00:36:29;14.22;57.35
66312;HTU21D;53114;51.138;6.008;2023-06-04T00:38:55;14.18;57.29
66312;HTU21D;53114;51.138;6.008;2023-06-04T00:41:21;14.14;57.82
66312;HTU21D;53114;51.138;6.008;2023-06-04T00:43:47;14.12;57.87
66312;HTU21D;53114;51.138;6.008;2023-06-04T00:46:25;14.10;57.77
66312;HTU21D;53114;51.138;6.008;2023-06-04T00:48:53;14.09;57.90
66312;HTU21D;53114;51.138;6.008;2023-06-04T00:51:21;14.10;58.44
66312;HTU21D;53114;51.138;6.008;2023-06-04T00:53:49;14.08;58.80
66312;HTU21D;53114;51.138;6.008;2023-06-04T00:56:16;14.06;58.61
66312;HTU21D;53114;51.138;6.008;2023-06-04T00:58:45;13.92;60.71
66312;HTU21D;53114;51.138;6.008;2023-06-04T01:04:16;13.70;62.48
66312;HTU21D;53114;51.138;6.008;2023-06-04T01:06:47;13.64;63.31
66312;HTU21D;53114;51.138;6.008;2023-06-04T01:09:15;13.55;63.90
66312;HTU21D;53114;51.138;6.008;2023-06-04T01:11:41;13.52;63.56
66312;HTU21D;53114;51.138;6.008;2023-06-04T01:14:09;13.49;63.64
66312;HTU21D;53114;51.138;6.008;2023-06-04T01:16:56;13.43;65.89
66312;HTU21D;53114;51.138;6.008;2023-06-04T01:27:59;13.03;69.51
66312;HTU21D;53114;51.138;6.008;2023-06-04T01:30:34;12.93;71.14
66312;HTU21D;53114;51.138;6.008;2023-06-04T01:33:01;12.94;70.12
66312;HTU21D;53114;51.138;6.008;2023-06-04T01:35:29;12.92;71.57
66312;HTU21D;53114;51.138;6.008;2023-06-04T01:37:57;12.92;73.25
66312;HTU21D;53114;51.138;6.008;2023-06-04T01:40:24;12.89;73.42
66312;HTU21D;53114;51.138;6.008;2023-06-04T01:42:52;12.85;74.09
66312;HTU21D;53114;51.138;6.008;2023-06-04T01:45:21;12.78;74.54
66312;HTU21D;53114;51.138;6.008;2023-06-04T01:47:47;12.70;75.41
66312;HTU21D;53114;51.138;6.008;2023-06-04T01:50:13;12.61;75.97
66312;HTU21D;53114;51.138;6.008;2023-06-04T01:52:40;12.56;74.80
66312;HTU21D;53114;51.138;6.008;2023-06-04T01:55:09;12.58;75.41
66312;HTU21D;53114;51.138;6.008;2023-06-04T01:57:38;12.60;74.40
66312;HTU21D;53114;51.138;6.008;2023-06-04T02:00:06;12.65;74.67
66312;HTU21D;53114;51.138;6.008;2023-06-04T02:02:44;12.57;76.50
66312;HTU21D;53114;51.138;6.008;2023-06-04T02:05:12;12.51;77.41
66312;HTU21D;53114;51.138;6.008;2023-06-04T02:07:39;12.50;77.90
66312;HTU21D;53114;51.138;6.008;2023-06-04T02:10:08;12.46;79.14
66312;HTU21D;53114;51.138;6.008;2023-06-04T02:12:40;12.38;80.49
66312;HTU21D;53114;51.138;6.008;2023-06-04T02:15:09;12.35;81.98
66312;HTU21D;53114;51.138;6.008;2023-06-04T02:17:36;12.27;82.81
66312;HTU21D;53114;51.138;6.008;2023-06-04T02:20:06;12.23;84.22
66312;HTU21D;53114;51.138;6.008;2023-06-04T02:22:35;12.21;88.67
66312;HTU21D;53114;51.138;6.008;2023-06-04T02:25:01;12.14;93.20
66312;HTU21D;53114;51.138;6.008;2023-06-04T02:27:27;12.07;97.60
66312;HTU21D;53114;51.138;6.008;2023-06-04T02:29:54;12.00;99.49
66312;HTU21D;53114;51.138;6.008;2023-06-04T02:32:20;11.90;101.88
66312;HTU21D;53114;51.138;6.008;2023-06-04T02:34:47;11.86;104.02
66312;HTU21D;53114;51.138;6.008;2023-06-04T02:37:13;11.85;105.06
66312;HTU21D;53114;51.138;6.008;2023-06-04T02:39:39;11.79;103.42
66312;HTU21D;53114;51.138;6.008;2023-06-04T02:42:05;11.76;101.46
66312;HTU21D;53114;51.138;6.008;2023-06-04T02:44:31;11.81;98.61
66312;HTU21D;53114;51.138;6.008;2023-06-04T02:46:57;11.84;96.84
66312;HTU21D;53114;51.138;6.008;2023-06-04T02:49:23;11.89;95.76
66312;HTU21D;53114;51.138;6.008;2023-06-04T02:51:49;11.91;95.06
66312;HTU21D;53114;51.138;6.008;2023-06-04T02:54:16;11.94;94.70
66312;HTU21D;53114;51.138;6.008;2023-06-04T02:56:42;11.99;94.50
66312;HTU21D;53114;51.138;6.008;2023-06-04T02:59:11;12.02;94.30
66312;HTU21D;53114;51.138;6.008;2023-06-04T03:01:37;12.02;94.65
66312;HTU21D;53114;51.138;6.008;2023-06-04T03:04:03;12.02;95.36
66312;HTU21D;53114;51.138;6.008;2023-06-04T03:06:30;12.02;96.68
66312;HTU21D;53114;51.138;6.008;2023-06-04T03:08:58;12.02;97.55
66312;HTU21D;53114;51.138;6.008;2023-06-04T03:11:26;11.98;98.63
66312;HTU21D;53114;51.138;6.008;2023-06-04T03:13:53;11.94;99.29
66312;HTU21D;53114;51.138;6.008;2023-06-04T03:16:20;11.93;100.61
66312;HTU21D;53114;51.138;6.008;2023-06-04T03:18:46;11.99;101.07
66312;HTU21D;53114;51.138;6.008;2023-06-04T03:21:13;12.02;100.78
66312;HTU21D;53114;51.138;6.008;2023-06-04T03:23:39;12.01;101.12
66312;HTU21D;53114;51.138;6.008;2023-06-04T03:26:06;11.97;102.83
66312;HTU21D;53114;51.138;6.008;2023-06-04T03:28:33;11.93;103.54
66312;HTU21D;53114;51.138;6.008;2023-06-04T03:31:02;11.94;103.75
66312;HTU21D;53114;51.138;6.008;2023-06-04T03:33:28;11.92;103.90
66312;HTU21D;53114;51.138;6.008;2023-06-04T03:35:54;11.88;104.59
66312;HTU21D;53114;51.138;6.008;2023-06-04T03:38:25;11.86;105.56
66312;HTU21D;53114;51.138;6.008;2023-06-04T03:40:52;11.85;106.44
66312;HTU21D;53114;51.138;6.008;2023-06-04T03:43:21;11.90;106.71
66312;HTU21D;53114;51.138;6.008;2023-06-04T03:45:50;11.90;106.96
66312;HTU21D;53114;51.138;6.008;2023-06-04T03:48:17;11.89;107.49
66312;HTU21D;53114;51.138;6.008;2023-06-04T03:50:43;11.84;108.35
66312;HTU21D;53114;51.138;6.008;2023-06-04T03:53:13;11.85;108.72
66312;HTU21D;53114;51.138;6.008;2023-06-04T03:55:39;11.87;108.88
66312;HTU21D;53114;51.138;6.008;2023-06-04T03:58:07;11.89;108.80
66312;HTU21D;53114;51.138;6.008;2023-06-04T04:00:37;11.90;109.45
66312;HTU21D;53114;51.138;6.008;2023-06-04T04:03:03;11.89;110.02
66312;HTU21D;53114;51.138;6.008;2023-06-04T04:05:30;11.91;110.35
66312;HTU21D;53114;51.138;6.008;2023-06-04T04:07:57;11.96;110.73
66312;HTU21D;53114;51.138;6.008;2023-06-04T04:10:27;11.97;111.66
66312;HTU21D;53114;51.138;6.008;2023-06-04T04:12:53;12.02;111.74
66312;HTU21D;53114;51.138;6.008;2023-06-04T04:15:21;12.08;112.42
66312;HTU21D;53114;51.138;6.008;2023-06-04T04:17:49;12.12;112.29
66312;HTU21D;53114;51.138;6.008;2023-06-04T04:20:15;12.13;113.15
66312;HTU21D;53114;51.138;6.008;2023-06-04T04:22:47;12.20;112.80
66312;HTU21D;53114;51.138;6.008;2023-06-04T04:25:15;12.26;113.11
66312;HTU21D;53114;51.138;6.008;2023-06-04T04:27:41;12.28;112.97
66312;HTU21D;53114;51.138;6.008;2023-06-04T04:30:11;12.27;113.01
66312;HTU21D;53114;51.138;6.008;2023-06-04T04:32:41;12.27;113.64
66312;HTU21D;53114;51.138;6.008;2023-06-04T04:35:16;12.22;114.52
66312;HTU21D;53114;51.138;6.008;2023-06-04T04:37:45;12.28;115.85
66312;HTU21D;53114;51.138;6.008;2023-06-04T04:40:13;12.40;115.12
66312;HTU21D;53114;51.138;6.008;2023-06-04T04:42:43;12.56;114.49
66312;HTU21D;53114;51.138;6.008;2023-06-04T04:45:11;12.67;113.74
66312;HTU21D;53114;51.138;6.008;2023-06-04T04:47:37;12.76;112.80
66312;HTU21D;53114;51.138;6.008;2023-06-04T04:50:04;12.81;112.42
66312;HTU21D;53114;51.138;6.008;2023-06-04T04:52:31;12.86;111.94
66312;HTU21D;53114;51.138;6.008;2023-06-04T04:54:57;12.86;113.09
66312;HTU21D;53114;51.138;6.008;2023-06-04T04:57:26;12.93;112.96
66312;HTU21D;53114;51.138;6.008;2023-06-04T04:59:54;13.01;113.25
66312;HTU21D;53114;51.138;6.008;2023-06-04T05:02:21;13.08;111.80
66312;HTU21D;53114;51.138;6.008;2023-06-04T05:04:48;13.12;111.33
66312;HTU21D;53114;51.138;6.008;2023-06-04T05:07:15;13.17;112.49
66312;HTU21D;53114;51.138;6.008;2023-06-04T05:09:42;13.18;112.86
66312;HTU21D;53114;51.138;6.008;2023-06-04T05:12:09;13.24;113.48
66312;HTU21D;53114;51.138;6.008;2023-06-04T05:14:36;13.26;113.51
66312;HTU21D;53114;51.138;6.008;2023-06-04T05:17:04;13.35;113.22
66312;HTU21D;53114;51.138;6.008;2023-06-04T05:19:32;13.44;112.99
66312;HTU21D;53114;51.138;6.008;2023-06-04T05:22:00;13.51;111.97
66312;HTU21D;53114;51.138;6.008;2023-06-04T05:24:30;13.62;111.30
66312;HTU21D;53114;51.138;6.008;2023-06-04T05:26:59;13.71;110.34
66312;HTU21D;53114;51.138;6.008;2023-06-04T05:29:26;13.79;110.80
66312;HTU21D;53114;51.138;6.008;2023-06-04T05:31:52;13.83;111.10
66312;HTU21D;53114;51.138;6.008;2023-06-04T05:34:21;13.93;109.99
66312;HTU21D;53114;51.138;6.008;2023-06-04T05:36:48;14.05;109.01
66312;HTU21D;53114;51.138;6.008;2023-06-04T05:39:16;14.13;109.07
66312;HTU21D;53114;51.138;6.008;2023-06-04T05:41:50;14.17;109.36
66312;HTU21D;53114;51.138;6.008;2023-06-04T05:44:17;14.25;108.36
66312;HTU21D;53114;51.138;6.008;2023-06-04T05:46:44;14.35;108.56
66312;HTU21D;53114;51.138;6.008;2023-06-04T05:49:11;14.43;107.42
66312;HTU21D;53114;51.138;6.008;2023-06-04T05:51:37;14.55;105.71
66312;HTU21D;53114;51.138;6.008;2023-06-04T05:54:03;14.64;104.89
66312;HTU21D;53114;51.138;6.008;2023-06-04T05:56:31;14.70;104.75
66312;HTU21D;53114;51.138;6.008;2023-06-04T05:58:59;14.74;104.91
66312;HTU21D;53114;51.138;6.008;2023-06-04T06:01:26;14.81;105.45
66312;HTU21D;53114;51.138;6.008;2023-06-04T06:03:54;14.87;103.55
66312;HTU21D;53114;51.138;6.008;2023-06-04T06:06:23;15.00;101.17
66312;HTU21D;53114;51.138;6.008;2023-06-04T06:08:49;15.10;100.61
66312;HTU21D;53114;51.138;6.008;2023-06-04T06:11:15;15.14;101.04
66312;HTU21D;53114;51.138;6.008;2023-06-04T06:13:42;15.21;101.40
66312;HTU21D;53114;51.138;6.008;2023-06-04T06:16:09;15.34;99.21
66312;HTU21D;53114;51.138;6.008;2023-06-04T06:18:35;15.48;97.10
66312;HTU21D;53114;51.138;6.008;2023-06-04T06:21:01;15.67;95.71
66312;HTU21D;53114;51.138;6.008;2023-06-04T06:23:28;15.83;94.56
66312;HTU21D;53114;51.138;6.008;2023-06-04T06:25:54;15.96;91.43
66312;HTU21D;53114;51.138;6.008;2023-06-04T06:28:24;16.10;90.87
66312;HTU21D;53114;51.138;6.008;2023-06-04T06:30:51;16.21;87.12
66312;HTU21D;53114;51.138;6.008;2023-06-04T06:33:17;16.34;84.45
66312;HTU21D;53114;51.138;6.008;2023-06-04T06:35:47;16.47;81.62
66312;HTU21D;53114;51.138;6.008;2023-06-04T06:38:13;16.50;85.26
66312;HTU21D;53114;51.138;6.008;2023-06-04T06:40:41;16.52;85.42
66312;HTU21D;53114;51.138;6.008;2023-06-04T06:43:07;16.55;80.79
66312;HTU21D;53114;51.138;6.008;2023-06-04T06:45:33;16.61;79.10
66312;HTU21D;53114;51.138;6.008;2023-06-04T06:47:58;16.66;81.02
66312;HTU21D;53114;51.138;6.008;2023-06-04T06:50:24;16.74;79.63
66312;HTU21D;53114;51.138;6.008;2023-06-04T06:52:50;16.99;77.30
66312;HTU21D;53114;51.138;6.008;2023-06-04T06:55:16;17.13;74.11
66312;HTU21D;53114;51.138;6.008;2023-06-04T06:57:43;17.20;70.48
66312;HTU21D;53114;51.138;6.008;2023-06-04T07:00:09;17.28;69.94
66312;HTU21D;53114;51.138;6.008;2023-06-04T07:02:35;17.39;71.31
66312;HTU21D;53114;51.138;6.008;2023-06-04T07:05:01;17.47;71.71
66312;HTU21D;53114;51.138;6.008;2023-06-04T07:07:27;17.47;70.41
66312;HTU21D;53114;51.138;6.008;2023-06-04T07:09:54;17.53;68.16
66312;HTU21D;53114;51.138;6.008;2023-06-04T07:12:20;17.63;67.77
66312;HTU21D;53114;51.138;6.008;2023-06-04T07:14:46;17.73;66.67
66312;HTU21D;53114;51.138;6.008;2023-06-04T07:17:12;17.80;66.42
66312;HTU21D;53114;51.138;6.008;2023-06-04T07:19:38;17.85;64.66
66312;HTU21D;53114;51.138;6.008;2023-06-04T07:22:04;17.96;62.17
66312;HTU21D;53114;51.138;6.008;2023-06-04T07:24:30;18.13;60.81
66312;HTU21D;53114;51.138;6.008;2023-06-04T07:26:56;18.32;60.41
66312;HTU21D;53114;51.138;6.008;2023-06-04T07:29:22;18.50;60.77
66312;HTU21D;53114;51.138;6.008;2023-06-04T07:31:48;18.72;59.54
66312;HTU21D;53114;51.138;6.008;2023-06-04T07:34:14;18.91;58.28
66312;HTU21D;53114;51.138;6.008;2023-06-04T07:36:40;19.31;57.77
66312;HTU21D;53114;51.138;6.008;2023-06-04T07:39:07;21.30;49.44
66312;HTU21D;53114;51.138;6.008;2023-06-04T07:41:33;24.11;41.08
66312;HTU21D;53114;51.138;6.008;2023-06-04T07:43:59;26.97;34.30
66312;HTU21D;53114;51.138;6.008;2023-06-04T07:46:25;29.50;28.39
66312;HTU21D;53114;51.138;6.008;2023-06-04T07:48:51;31.25;25.00
66312;HTU21D;53114;51.138;6.008;2023-06-04T07:51:18;32.35;23.63
66312;HTU21D;53114;51.138;6.008;2023-06-04T07:53:45;33.21;22.38
66312;HTU21D;53114;51.138;6.008;2023-06-04T07:56:11;34.23;20.54
66312;HTU21D;53114;51.138;6.008;2023-06-04T07:58:37;34.98;18.85
66312;HTU21D;53114;51.138;6.008;2023-06-04T08:01:03;35.58;17.64
66312;HTU21D;53114;51.138;6.008;2023-06-04T08:03:29;36.17;16.67
66312;HTU21D;53114;51.138;6.008;2023-06-04T08:05:56;36.67;15.65
66312;HTU21D;53114;51.138;6.008;2023-06-04T08:08:22;37.10;15.05
66312;HTU21D;53114;51.138;6.008;2023-06-04T08:10:48;37.77;14.51
66312;HTU21D;53114;51.138;6.008;2023-06-04T08:13:14;38.16;13.91
66312;HTU21D;53114;51.138;6.008;2023-06-04T08:15:40;38.03;13.84
66312;HTU21D;53114;51.138;6.008;2023-06-04T08:18:26;37.75;14.93
66312;HTU21D;53114;51.138;6.008;2023-06-04T08:21:10;37.75;15.03
66312;HTU21D;53114;51.138;6.008;2023-06-04T08:23:47;38.10;14.49
66312;HTU21D;53114;51.138;6.008;2023-06-04T08:26:33;38.25;14.15
66312;HTU21D;53114;51.138;6.008;2023-06-04T08:29:05;38.32;13.97
66312;HTU21D;53114;51.138;6.008;2023-06-04T08:31:37;38.54;13.84
66312;HTU21D;53114;51.138;6.008;2023-06-04T08:34:18;38.38;14.32
66312;HTU21D;53114;51.138;6.008;2023-06-04T08:36:45;38.17;14.13
66312;HTU21D;53114;51.138;6.008;2023-06-04T08:39:12;37.85;13.98
66312;HTU21D;53114;51.138;6.008;2023-06-04T08:41:48;38.07;13.76
66312;HTU21D;53114;51.138;6.008;2023-06-04T08:44:16;38.40;13.33
66312;HTU21D;53114;51.138;6.008;2023-06-04T08:46:44;38.06;13.82
66312;HTU21D;53114;51.138;6.008;2023-06-04T08:49:13;38.17;13.64
66312;HTU21D;53114;51.138;6.008;2023-06-04T08:51:39;37.73;14.16
66312;HTU21D;53114;51.138;6.008;2023-06-04T08:54:06;37.16;14.61
66312;HTU21D;53114;51.138;6.008;2023-06-04T08:56:34;36.42;15.72
66312;HTU21D;53114;51.138;6.008;2023-06-04T08:59:05;36.43;15.25
66312;HTU21D;53114;51.138;6.008;2023-06-04T09:01:35;36.73;14.10
66312;HTU21D;53114;51.138;6.008;2023-06-04T09:04:06;36.60;14.48
66312;HTU21D;53114;51.138;6.008;2023-06-04T09:06:39;35.97;15.37
66312;HTU21D;53114;51.138;6.008;2023-06-04T09:09:09;35.60;15.30
66312;HTU21D;53114;51.138;6.008;2023-06-04T09:11:49;35.50;14.90
66312;HTU21D;53114;51.138;6.008;2023-06-04T09:14:18;35.70;14.70
66312;HTU21D;53114;51.138;6.008;2023-06-04T09:16:51;35.97;14.67
66312;HTU21D;53114;51.138;6.008;2023-06-04T09:19:19;36.14;14.72
66312;HTU21D;53114;51.138;6.008;2023-06-04T09:21:55;36.63;13.81
66312;HTU21D;53114;51.138;6.008;2023-06-04T09:24:37;36.59;12.65
66312;HTU21D;53114;51.138;6.008;2023-06-04T09:27:11;36.85;13.36
66312;HTU21D;53114;51.138;6.008;2023-06-04T09:29:39;37.05;13.31
66312;HTU21D;53114;51.138;6.008;2023-06-04T09:32:05;37.17;13.88
66312;HTU21D;53114;51.138;6.008;2023-06-04T09:34:32;37.60;13.05
66312;HTU21D;53114;51.138;6.008;2023-06-04T09:36:59;38.18;11.76
66312;HTU21D;53114;51.138;6.008;2023-06-04T09:39:26;38.84;11.69
66312;HTU21D;53114;51.138;6.008;2023-06-04T09:42:00;39.00;11.82
66312;HTU21D;53114;51.138;6.008;2023-06-04T09:44:28;39.08;10.53
66312;HTU21D;53114;51.138;6.008;2023-06-04T09:46:58;38.80;9.66
66312;HTU21D;53114;51.138;6.008;2023-06-04T09:49:24;37.93;11.01
66312;HTU21D;53114;51.138;6.008;2023-06-04T09:51:51;37.35;11.52
66312;HTU21D;53114;51.138;6.008;2023-06-04T09:54:17;37.49;11.60
66312;HTU21D;53114;51.138;6.008;2023-06-04T09:56:43;37.85;11.33
66312;HTU21D;53114;51.138;6.008;2023-06-04T09:59:09;38.35;10.56
66312;HTU21D;53114;51.138;6.008;2023-06-04T10:01:39;38.48;9.84
66312;HTU21D;53114;51.138;6.008;2023-06-04T10:04:08;38.15;9.88
66312;HTU21D;53114;51.138;6.008;2023-06-04T10:06:35;37.90;9.95
66312;HTU21D;53114;51.138;6.008;2023-06-04T10:09:08;37.84;10.18
66312;HTU21D;53114;51.138;6.008;2023-06-04T10:11:38;37.84;10.24
66312;HTU21D;53114;51.138;6.008;2023-06-04T10:14:30;37.32;10.77
66312;HTU21D;53114;51.138;6.008;2023-06-04T10:16:58;36.71;12.16
66312;HTU21D;53114;51.138;6.008;2023-06-04T10:19:25;36.11;12.03
66312;HTU21D;53114;51.138;6.008;2023-06-04T10:21:52;35.40;12.91
66312;HTU21D;53114;51.138;6.008;2023-06-04T10:24:18;34.00;14.57
66312;HTU21D;53114;51.138;6.008;2023-06-04T10:26:47;33.29;14.82
66312;HTU21D;53114;51.138;6.008;2023-06-04T10:29:14;33.12;15.29
66312;HTU21D;53114;51.138;6.008;2023-06-04T10:31:41;32.88;16.03
66312;HTU21D;53114;51.138;6.008;2023-06-04T10:34:07;32.42;16.57
66312;HTU21D;53114;51.138;6.008;2023-06-04T10:36:45;31.88;16.97
66312;HTU21D;53114;51.138;6.008;2023-06-04T10:39:12;31.42;18.56
66312;HTU21D;53114;51.138;6.008;2023-06-04T10:41:39;31.04;19.51
66312;HTU21D;53114;51.138;6.008;2023-06-04T10:44:05;30.65;19.51
66312;HTU21D;53114;51.138;6.008;2023-06-04T10:46:39;30.55;18.99
66312;HTU21D;53114;51.138;6.008;2023-06-04T10:49:10;30.50;19.03
66312;HTU21D;53114;51.138;6.008;2023-06-04T10:51:37;30.53;18.74
66312;HTU21D;53114;51.138;6.008;2023-06-04T10:54:04;30.45;18.99
66312;HTU21D;53114;51.138;6.008;2023-06-04T10:56:33;30.02;19.22
66312;HTU21D;53114;51.138;6.008;2023-06-04T10:59:13;29.89;19.73
66312;HTU21D;53114;51.138;6.008;2023-06-04T11:01:39;29.78;19.94
66312;HTU21D;53114;51.138;6.008;2023-06-04T11:04:06;29.76;20.21
66312;HTU21D;53114;51.138;6.008;2023-06-04T11:06:32;29.78;20.88
66312;HTU21D;53114;51.138;6.008;2023-06-04T11:09:03;29.61;20.93
66312;HTU21D;53114;51.138;6.008;2023-06-04T11:11:29;29.54;20.37
66312;HTU21D;53114;51.138;6.008;2023-06-04T11:13:55;29.56;21.05
66312;HTU21D;53114;51.138;6.008;2023-06-04T11:16:21;29.58;21.31
66312;HTU21D;53114;51.138;6.008;2023-06-04T11:18:57;29.68;21.20
66312;HTU21D;53114;51.138;6.008;2023-06-04T11:21:25;29.74;20.89
66312;HTU21D;53114;51.138;6.008;2023-06-04T11:24:00;29.66;20.15
66312;HTU21D;53114;51.138;6.008;2023-06-04T11:26:31;29.63;20.76
66312;HTU21D;53114;51.138;6.008;2023-06-04T11:28:59;29.63;19.52
66312;HTU21D;53114;51.138;6.008;2023-06-04T11:31:25;29.46;20.71
66312;HTU21D;53114;51.138;6.008;2023-06-04T11:33:51;29.39;19.92
66312;HTU21D;53114;51.138;6.008;2023-06-04T11:36:30;29.39;19.90
66312;HTU21D;53114;51.138;6.008;2023-06-04T11:38:57;29.53;19.84
66312;HTU21D;53114;51.138;6.008;2023-06-04T11:41:27;29.59;19.92
66312;HTU21D;53114;51.138;6.008;2023-06-04T11:43:53;29.47;20.00
66312;HTU21D;53114;51.138;6.008;2023-06-04T11:46:20;29.42;19.64
66312;HTU21D;53114;51.138;6.008;2023-06-04T11:48:46;29.44;19.24
66312;HTU21D;53114;51.138;6.008;2023-06-04T11:51:12;29.33;19.18
66312;HTU21D;53114;51.138;6.008;2023-06-04T11:53:39;29.23;18.36
66312;HTU21D;53114;51.138;6.008;2023-06-04T11:56:06;29.09;18.68
66312;HTU21D;53114;51.138;6.008;2023-06-04T11:58:32;28.89;18.86
66312;HTU21D;53114;51.138;6.008;2023-06-04T12:00:59;28.89;20.82
66312;HTU21D;53114;51.138;6.008;2023-06-04T12:03:36;28.97;20.84
66312;HTU21D;53114;51.138;6.008;2023-06-04T12:06:14;29.09;20.58
66312;HTU21D;53114;51.138;6.008;2023-06-04T12:08:59;29.22;20.41
66312;HTU21D;53114;51.138;6.008;2023-06-04T12:11:31;29.28;18.98
66312;HTU21D;53114;51.138;6.008;2023-06-04T12:14:04;29.26;18.15
66312;HTU21D;53114;51.138;6.008;2023-06-04T12:16:31;29.06;19.25
66312;HTU21D;53114;51.138;6.008;2023-06-04T12:19:11;28.84;18.83
66312;HTU21D;53114;51.138;6.008;2023-06-04T12:21:39;28.82;18.81
66312;HTU21D;53114;51.138;6.008;2023-06-04T12:24:13;28.82;19.31
66312;HTU21D;53114;51.138;6.008;2023-06-04T12:26:41;28.72;19.51
66312;HTU21D;53114;51.138;6.008;2023-06-04T12:29:11;28.70;20.76
66312;HTU21D;53114;51.138;6.008;2023-06-04T12:31:44;28.69;19.89
66312;HTU21D;53114;51.138;6.008;2023-06-04T12:34:14;28.62;18.84
66312;HTU21D;53114;51.138;6.008;2023-06-04T12:36:40;28.45;18.97
66312;HTU21D;53114;51.138;6.008;2023-06-04T12:39:06;28.28;19.18
66312;HTU21D;53114;51.138;6.008;2023-06-04T12:41:33;28.23;19.25
66312;HTU21D;53114;51.138;6.008;2023-06-04T12:44:00;28.14;19.34
66312;HTU21D;53114;51.138;6.008;2023-06-04T12:46:27;28.14;21.46
66312;HTU21D;53114;51.138;6.008;2023-06-04T12:48:54;28.27;21.67
66312;HTU21D;53114;51.138;6.008;2023-06-04T12:51:21;28.35;20.92
66312;HTU21D;53114;51.138;6.008;2023-06-04T12:53:47;28.31;19.37
66312;HTU21D;53114;51.138;6.008;2023-06-04T12:56:14;28.17;19.14
66312;HTU21D;53114;51.138;6.008;2023-06-04T12:58:40;28.10;18.57
66312;HTU21D;53114;51.138;6.008;2023-06-04T13:01:06;28.04;17.96
66312;HTU21D;53114;51.138;6.008;2023-06-04T13:03:36;27.99;18.59
66312;HTU21D;53114;51.138;6.008;2023-06-04T13:06:03;28.03;19.30
66312;HTU21D;53114;51.138;6.008;2023-06-04T13:08:29;28.00;19.76
66312;HTU21D;53114;51.138;6.008;2023-06-04T13:10:55;27.90;19.83
66312;HTU21D;53114;51.138;6.008;2023-06-04T13:13:21;27.85;19.47
66312;HTU21D;53114;51.138;6.008;2023-06-04T13:15:47;27.78;19.69
66312;HTU21D;53114;51.138;6.008;2023-06-04T13:18:13;27.75;19.16
66312;HTU21D;53114;51.138;6.008;2023-06-04T13:20:40;27.80;18.86
66312;HTU21D;53114;51.138;6.008;2023-06-04T13:23:07;27.71;19.19
66312;HTU21D;53114;51.138;6.008;2023-06-04T13:25:34;27.75;18.73
66312;HTU21D;53114;51.138;6.008;2023-06-04T13:28:01;27.85;18.58
66312;HTU21D;53114;51.138;6.008;2023-06-04T13:30:28;27.78;17.99
66312;HTU21D;53114;51.138;6.008;2023-06-04T13:32:54;27.65;18.18
66312;HTU21D;53114;51.138;6.008;2023-06-04T13:35:20;27.61;18.32
66312;HTU21D;53114;51.138;6.008;2023-06-04T13:37:47;27.55;18.52
66312;HTU21D;53114;51.138;6.008;2023-06-04T13:40:13;27.46;18.64
66312;HTU21D;53114;51.138;6.008;2023-06-04T13:42:40;27.52;19.83
66312;HTU21D;53114;51.138;6.008;2023-06-04T13:45:06;27.59;19.54
66312;HTU21D;53114;51.138;6.008;2023-06-04T13:47:32;27.53;18.89
66312;HTU21D;53114;51.138;6.008;2023-06-04T13:49:58;27.44;19.47
66312;HTU21D;53114;51.138;6.008;2023-06-04T13:52:25;27.41;19.53
66312;HTU21D;53114;51.138;6.008;2023-06-04T13:54:51;27.34;19.39
66312;HTU21D;53114;51.138;6.008;2023-06-04T13:57:17;27.25;19.05
66312;HTU21D;53114;51.138;6.008;2023-06-04T13:59:43;27.28;19.44
66312;HTU21D;53114;51.138;6.008;2023-06-04T14:02:09;27.30;19.75
66312;HTU21D;53114;51.138;6.008;2023-06-04T14:04:35;27.31;19.59
66312;HTU21D;53114;51.138;6.008;2023-06-04T14:07:01;27.42;20.30
66312;HTU21D;53114;51.138;6.008;2023-06-04T14:09:28;27.45;21.05
66312;HTU21D;53114;51.138;6.008;2023-06-04T14:11:54;27.43;21.02
66312;HTU21D;53114;51.138;6.008;2023-06-04T14:14:21;27.36;20.65
66312;HTU21D;53114;51.138;6.008;2023-06-04T14:16:50;27.38;21.61
66312;HTU21D;53114;51.138;6.008;2023-06-04T14:19:16;27.46;21.44
66312;HTU21D;53114;51.138;6.008;2023-06-04T14:21:43;27.57;20.71
66312;HTU21D;53114;51.138;6.008;2023-06-04T14:24:10;27.54;20.02
66312;HTU21D;53114;51.138;6.008;2023-06-04T14:26:37;27.45;20.30
66312;HTU21D;53114;51.138;6.008;2023-06-04T14:29:03;27.40;20.46
66312;HTU21D;53114;51.138;6.008;2023-06-04T14:31:29;27.41;20.08
66312;HTU21D;53114;51.138;6.008;2023-06-04T14:33:56;27.40;20.20
66312;HTU21D;53114;51.138;6.008;2023-06-04T14:36:22;27.40;20.23
66312;HTU21D;53114;51.138;6.008;2023-06-04T14:38:48;27.43;20.78
66312;HTU21D;53114;51.138;6.008;2023-06-04T14:41:14;27.42;19.46
66312;HTU21D;53114;51.138;6.008;2023-06-04T14:43:40;27.34;19.99
66312;HTU21D;53114;51.138;6.008;2023-06-04T14:46:06;27.30;19.92
66312;HTU21D;53114;51.138;6.008;2023-06-04T14:48:33;27.16;20.82
66312;HTU21D;53114;51.138;6.008;2023-06-04T14:50:59;27.12;21.20
66312;HTU21D;53114;51.138;6.008;2023-06-04T14:53:25;27.16;21.02
66312;HTU21D;53114;51.138;6.008;2023-06-04T14:55:51;27.16;20.26
66312;HTU21D;53114;51.138;6.008;2023-06-04T14:58:18;27.13;20.56
66312;HTU21D;53114;51.138;6.008;2023-06-04T15:00:45;27.19;20.89
66312;HTU21D;53114;51.138;6.008;2023-06-04T15:03:11;27.19;21.21
66312;HTU21D;53114;51.138;6.008;2023-06-04T15:05:37;27.15;20.68
66312;HTU21D;53114;51.138;6.008;2023-06-04T15:08:04;27.23;21.50
66312;HTU21D;53114;51.138;6.008;2023-06-04T15:10:31;27.37;20.88
66312;HTU21D;53114;51.138;6.008;2023-06-04T15:12:59;27.47;21.12
66312;HTU21D;53114;51.138;6.008;2023-06-04T15:15:26;27.56;20.83
66312;HTU21D;53114;51.138;6.008;2023-06-04T15:17:52;27.65;20.50
66312;HTU21D;53114;51.138;6.008;2023-06-04T15:20:18;27.69;20.57
66312;HTU21D;53114;51.138;6.008;2023-06-04T15:22:44;27.66;21.02
66312;HTU21D;53114;51.138;6.008;2023-06-04T15:25:10;27.57;19.99
66312;HTU21D;53114;51.138;6.008;2023-06-04T15:27:37;27.56;20.47
66312;HTU21D;53114;51.138;6.008;2023-06-04T15:30:04;27.64;20.48